Time;durP1;ratioP1;P1;durP2;ratioP2;P2;SDS_P1;SDS_P2;PMS_P1;PMS_P2;Temp;Humidity;BMP_temperature;BMP_pressure;BME280_temperature;BME280_humidity;BME280_pressure;Samples;Min_cycle;Max_cycle;Signal;HPM_P1;HPM_P2
2023/11/06 00:02:14;;;;;;;55.50;2.20;;;;;;;;;;5051093;28;20450;-70
2023/11/06 00:04:41;;;;;;;55.97;2.20;;;;;;;;;;5051107;28;20456;-71
2023/11/06 00:07:08;;;;;;;55.70;1.93;;;;;;;;;;5050987;28;20491;-70
2023/11/06 00:09:35;;;;;;;55.47;2.17;;;;;;;;;;5050866;28;20456;-71
2023/11/06 00:12:04;;;;;;;55.90;1.80;;;;;;;;;;5050953;28;20967;-71
2023/11/06 00:14:31;;;;;;;55.70;2.07;;;;;;;;;;5051046;28;20723;-70
2023/11/06 00:16:58;;;;;;;55.87;2.40;;;;;;;;;;5050461;28;20440;-70
2023/11/06 00:19:25;;;;;;;55.77;2.20;;;;;;;;;;5050952;28;20459;-70
2023/11/06 00:21:52;;;;;;;55.60;2.40;;;;;;;;;;5050603;28;20998;-71
2023/11/06 00:24:19;;;;;;;55.57;2.03;;;;;;;;;;5050993;28;20829;-72
2023/11/06 00:26:47;;;;;;;55.50;1.97;;;;;;;;;;5050569;28;20484;-70
2023/11/06 00:29:15;;;;;;;55.77;2.00;;;;;;;;;;5050690;28;20450;-71
2023/11/06 00:31:42;;;;;;;55.53;2.03;;;;;;;;;;5052811;28;20542;-71
2023/11/06 00:34:10;;;;;;;55.80;2.20;;;;;;;;;;5057609;28;20828;-72
2023/11/06 00:36:37;;;;;;;55.87;2.17;;;;;;;;;;5057292;28;20444;-70
2023/11/06 00:39:04;;;;;;;55.70;2.00;;;;;;;;;;5057422;28;20445;-71
2023/11/06 00:41:31;;;;;;;55.73;2.30;;;;;;;;;;5057243;28;20982;-70
2023/11/06 00:43:58;;;;;;;55.90;2.00;;;;;;;;;;5057085;28;20797;-71
2023/11/06 00:46:26;;;;;;;55.80;2.10;;;;;;;;;;5057358;28;20495;-70
2023/11/06 00:48:53;;;;;;;55.67;2.10;;;;;;;;;;5057642;28;20539;-70
2023/11/06 00:51:21;;;;;;;55.80;2.30;;;;;;;;;;5057149;28;20466;-70
2023/11/06 00:53:48;;;;;;;55.70;1.90;;;;;;;;;;5057309;28;21035;-70
2023/11/06 00:56:15;;;;;;;55.60;2.20;;;;;;;;;;5057163;28;20464;-71
2023/11/06 00:58:43;;;;;;;55.70;2.03;;;;;;;;;;5057045;28;20444;-73
2023/11/06 01:01:12;;;;;;;55.77;2.10;;;;;;;;;;5057023;28;20504;-71
2023/11/06 01:03:41;;;;;;;55.83;2.40;;;;;;;;;;5057332;28;20812;-71
2023/11/06 01:06:10;;;;;;;55.80;2.40;;;;;;;;;;5057201;28;20495;-71
2023/11/06 01:08:38;;;;;;;55.70;2.20;;;;;;;;;;5057136;28;20454;-70
2023/11/06 01:11:05;;;;;;;55.90;2.10;;;;;;;;;;5056868;28;20471;-71
2023/11/06 01:13:33;;;;;;;55.57;2.20;;;;;;;;;;5057580;28;20495;-71
2023/11/06 01:16:00;;;;;;;55.70;2.07;;;;;;;;;;5057156;28;20808;-70
2023/11/06 01:18:27;;;;;;;55.50;2.00;;;;;;;;;;5057247;28;20537;-71
2023/11/06 01:20:55;;;;;;;55.70;2.10;;;;;;;;;;5057199;28;20470;-71
2023/11/06 01:23:22;;;;;;;55.67;1.93;;;;;;;;;;5057028;28;20440;-71
2023/11/06 01:25:50;;;;;;;55.80;2.13;;;;;;;;;;5056865;28;20451;-71
2023/11/06 01:28:17;;;;;;;55.70;2.20;;;;;;;;;;5057142;28;20488;-71
2023/11/06 01:30:44;;;;;;;55.23;1.80;;;;;;;;;;5056677;28;20467;-71
2023/11/06 01:33:11;;;;;;;55.80;2.20;;;;;;;;;;5056960;28;20453;-71
2023/11/06 01:35:38;;;;;;;55.90;2.27;;;;;;;;;;5056844;28;20460;-71
2023/11/06 01:38:07;;;;;;;55.47;1.80;;;;;;;;;;5056806;28;20446;-72
2023/11/06 01:40:34;;;;;;;55.40;2.20;;;;;;;;;;5057083;28;20571;-71
2023/11/06 01:43:05;;;;;;;56.10;3.00;;;;;;;;;;5055805;28;20443;-71
2023/11/06 01:45:32;;;;;;;55.60;1.80;;;;;;;;;;5054128;28;20444;-71
2023/11/06 01:48:00;;;;;;;56.00;2.00;;;;;;;;;;5053543;28;21031;-72
2023/11/06 01:50:27;;;;;;;55.60;1.90;;;;;;;;;;5053536;28;20885;-72
2023/11/06 01:52:54;;;;;;;55.47;1.93;;;;;;;;;;5053253;28;20452;-71
2023/11/06 01:55:22;;;;;;;55.80;2.30;;;;;;;;;;5053526;28;20454;-71
2023/11/06 01:57:49;;;;;;;55.47;1.90;;;;;;;;;;5053507;28;20981;-71
2023/11/06 02:00:19;;;;;;;55.80;1.90;;;;;;;;;;5053139;28;21027;-71
2023/11/06 02:02:47;;;;;;;55.80;2.10;;;;;;;;;;5053169;28;20531;-71
2023/11/06 02:05:14;;;;;;;55.57;2.30;;;;;;;;;;5053298;28;20453;-72
2023/11/06 02:07:42;;;;;;;55.60;1.90;;;;;;;;;;5053194;28;20566;-73
2023/11/06 02:10:10;;;;;;;55.33;1.90;;;;;;;;;;5053404;28;20521;-71
2023/11/06 02:12:38;;;;;;;55.67;2.33;;;;;;;;;;5053003;28;20482;-72
2023/11/06 02:15:06;;;;;;;55.67;2.13;;;;;;;;;;5044987;28;20448;-71
2023/11/06 02:17:33;;;;;;;55.60;2.20;;;;;;;;;;5053051;28;20441;-71
2023/11/06 02:20:00;;;;;;;55.70;2.00;;;;;;;;;;5052951;28;20475;-70
2023/11/06 02:22:28;;;;;;;55.80;2.20;;;;;;;;;;5052908;28;20457;-69
2023/11/06 02:24:57;;;;;;;55.63;2.03;;;;;;;;;;5052815;28;20498;-72
2023/11/06 02:27:24;;;;;;;55.87;1.93;;;;;;;;;;5052698;28;20513;-72
2023/11/06 02:29:51;;;;;;;55.67;2.10;;;;;;;;;;5052877;28;21024;-71
2023/11/06 02:32:19;;;;;;;55.83;2.00;;;;;;;;;;5052854;28;20449;-71
2023/11/06 02:34:46;;;;;;;55.60;1.97;;;;;;;;;;5052857;28;20448;-72
2023/11/06 02:37:13;;;;;;;55.60;2.00;;;;;;;;;;5052745;28;20946;-71
2023/11/06 02:39:40;;;;;;;55.90;1.97;;;;;;;;;;5052490;28;20454;-76
2023/11/06 02:42:09;;;;;;;56.67;3.07;;;;;;;;;;5052875;28;20450;-71
2023/11/06 02:44:36;;;;;;;55.47;2.00;;;;;;;;;;5052671;28;20462;-72
2023/11/06 02:47:04;;;;;;;55.80;2.40;;;;;;;;;;5052555;28;20488;-71
2023/11/06 02:49:31;;;;;;;55.67;2.23;;;;;;;;;;5052409;28;20449;-72
2023/11/06 02:51:59;;;;;;;55.90;2.20;;;;;;;;;;5052365;28;20457;-72
2023/11/06 02:54:26;;;;;;;55.77;2.40;;;;;;;;;;5051903;28;20458;-71
2023/11/06 02:56:53;;;;;;;55.77;2.27;;;;;;;;;;5052382;28;20449;-73
2023/11/06 02:59:22;;;;;;;55.63;2.23;;;;;;;;;;5052548;28;20452;-72
2023/11/06 03:01:50;;;;;;;55.90;2.23;;;;;;;;;;5051821;28;20484;-72
2023/11/06 03:04:17;;;;;;;56.00;2.00;;;;;;;;;;5052208;28;20503;-72
2023/11/06 03:06:45;;;;;;;55.87;2.30;;;;;;;;;;5051737;28;20454;-73
2023/11/06 03:09:13;;;;;;;55.77;2.00;;;;;;;;;;5052446;28;20447;-71
2023/11/06 03:11:40;;;;;;;55.70;2.23;;;;;;;;;;5051838;28;21006;-72
2023/11/06 03:14:07;;;;;;;56.07;2.10;;;;;;;;;;5043995;28;20454;-72
2023/11/06 03:16:38;;;;;;;55.97;2.43;;;;;;;;;;5051813;28;20527;-72
2023/11/06 03:19:05;;;;;;;55.90;2.30;;;;;;;;;;5052016;28;20509;-72
2023/11/06 03:21:32;;;;;;;55.60;2.20;;;;;;;;;;5051741;28;20472;-72
2023/11/06 03:24:00;;;;;;;56.20;2.67;;;;;;;;;;5051974;28;20440;-72
2023/11/06 03:26:27;;;;;;;55.77;2.30;;;;;;;;;;5051798;28;20778;-71
2023/11/06 03:28:54;;;;;;;55.37;2.00;;;;;;;;;;5051696;28;20501;-71
2023/11/06 03:31:21;;;;;;;55.80;2.20;;;;;;;;;;5051642;28;20481;-72
2023/11/06 03:33:50;;;;;;;55.47;1.90;;;;;;;;;;5051655;28;20453;-72
2023/11/06 03:36:17;;;;;;;56.00;2.00;;;;;;;;;;5051348;28;20452;-70
2023/11/06 03:38:44;;;;;;;54.77;2.10;;;;;;;;;;5051827;28;20448;-72
2023/11/06 03:41:11;;;;;;;54.83;1.80;;;;;;;;;;5051576;28;20959;-71
2023/11/06 03:43:39;;;;;;;55.67;1.90;;;;;;;;;;5051402;28;20514;-71
2023/11/06 03:46:06;;;;;;;55.57;2.10;;;;;;;;;;5051208;28;20835;-72
2023/11/06 03:48:34;;;;;;;55.27;1.90;;;;;;;;;;5051096;28;20492;-71
2023/11/06 03:51:02;;;;;;;55.80;2.20;;;;;;;;;;5051373;28;20471;-71
2023/11/06 03:53:30;;;;;;;55.70;2.27;;;;;;;;;;5051411;28;20825;-72
2023/11/06 03:55:57;;;;;;;55.63;2.20;;;;;;;;;;5050956;28;20457;-71
2023/11/06 03:58:24;;;;;;;55.07;2.00;;;;;;;;;;5051241;28;20940;-71
2023/11/06 04:00:51;;;;;;;55.67;1.90;;;;;;;;;;5050750;28;20489;-74
2023/11/06 04:03:19;;;;;;;55.73;1.77;;;;;;;;;;5051064;28;20454;-71
2023/11/06 04:05:46;;;;;;;55.77;2.03;;;;;;;;;;5050691;28;20449;-73
2023/11/06 04:08:14;;;;;;;55.80;2.10;;;;;;;;;;5050684;28;20491;-71
2023/11/06 04:10:41;;;;;;;55.53;2.00;;;;;;;;;;5050829;28;20473;-71
2023/11/06 04:13:08;;;;;;;55.63;1.93;;;;;;;;;;5050821;28;20444;-70
2023/11/06 04:15:35;;;;;;;55.73;2.17;;;;;;;;;;5051033;28;20820;-71
2023/11/06 04:18:03;;;;;;;55.73;2.20;;;;;;;;;;5051011;28;20474;-71
2023/11/06 04:20:30;;;;;;;54.67;1.90;;;;;;;;;;5051073;28;20472;-72
2023/11/06 04:22:57;;;;;;;55.80;2.00;;;;;;;;;;5050671;28;20452;-71
2023/11/06 04:25:26;;;;;;;55.90;2.20;;;;;;;;;;5050757;28;20450;-71
2023/11/06 04:27:53;;;;;;;55.57;2.40;;;;;;;;;;5050698;28;20483;-71
2023/11/06 04:30:20;;;;;;;55.67;2.03;;;;;;;;;;5050489;28;20593;-73
2023/11/06 04:32:47;;;;;;;55.90;2.30;;;;;;;;;;5050575;28;20448;-72
2023/11/06 04:35:14;;;;;;;55.37;2.43;;;;;;;;;;5050780;28;20823;-73
2023/11/06 04:37:41;;;;;;;55.93;1.93;;;;;;;;;;5050637;28;20479;-71
2023/11/06 04:40:10;;;;;;;55.40;1.73;;;;;;;;;;5050588;28;21017;-72
2023/11/06 04:42:39;;;;;;;55.70;1.87;;;;;;;;;;5050478;28;20458;-72
2023/11/06 04:45:08;;;;;;;55.57;1.97;;;;;;;;;;5050628;28;20475;-71
2023/11/06 04:47:35;;;;;;;55.63;1.90;;;;;;;;;;5050583;28;20487;-72
2023/11/06 04:50:02;;;;;;;55.40;1.97;;;;;;;;;;5050857;28;20855;-71
2023/11/06 04:52:30;;;;;;;55.67;2.00;;;;;;;;;;5050672;28;20535;-69
2023/11/06 04:54:57;;;;;;;55.90;2.20;;;;;;;;;;5050373;28;20456;-71
2023/11/06 04:57:24;;;;;;;55.60;2.00;;;;;;;;;;5050450;28;20540;-69
2023/11/06 04:59:52;;;;;;;55.70;2.10;;;;;;;;;;5050419;28;20474;-72
2023/11/06 05:02:19;;;;;;;55.63;2.10;;;;;;;;;;5050716;28;20452;-71
2023/11/06 05:04:46;;;;;;;55.80;2.03;;;;;;;;;;5050545;28;20926;-71
2023/11/06 05:07:14;;;;;;;55.77;2.13;;;;;;;;;;5042270;28;20448;-70
2023/11/06 05:09:42;;;;;;;55.87;2.30;;;;;;;;;;5050414;28;20457;-69
2023/11/06 05:12:10;;;;;;;55.77;2.00;;;;;;;;;;5050039;28;20446;-70
2023/11/06 05:14:37;;;;;;;55.80;2.27;;;;;;;;;;5050573;28;20480;-69
2023/11/06 05:17:06;;;;;;;55.87;2.30;;;;;;;;;;5050276;28;20444;-70
2023/11/06 05:19:37;;;;;;;55.80;2.07;;;;;;;;;;5053990;28;20450;-70
2023/11/06 05:22:04;;;;;;;55.90;2.50;;;;;;;;;;5053916;28;20455;-70
2023/11/06 05:24:32;;;;;;;55.47;2.30;;;;;;;;;;5053914;28;20869;-70
2023/11/06 05:27:00;;;;;;;55.87;2.00;;;;;;;;;;5054030;28;20902;-70
2023/11/06 05:29:27;;;;;;;55.80;2.07;;;;;;;;;;5054005;28;20494;-69
2023/11/06 05:31:54;;;;;;;55.67;2.27;;;;;;;;;;5053799;28;20475;-69
2023/11/06 05:34:22;;;;;;;55.80;2.10;;;;;;;;;;5053951;28;20448;-70
2023/11/06 05:36:49;;;;;;;55.73;1.97;;;;;;;;;;5053557;28;20819;-72
2023/11/06 05:39:16;;;;;;;55.80;2.20;;;;;;;;;;5054106;28;20437;-70
2023/11/06 05:41:46;;;;;;;55.57;2.10;;;;;;;;;;5053542;28;21018;-71
2023/11/06 05:44:14;;;;;;;55.50;2.43;;;;;;;;;;5053834;28;21036;-69
2023/11/06 05:46:41;;;;;;;55.90;2.20;;;;;;;;;;5053526;28;20448;-70
2023/11/06 05:49:08;;;;;;;55.67;2.10;;;;;;;;;;5053674;28;20610;-70
2023/11/06 05:51:37;;;;;;;55.77;2.00;;;;;;;;;;5053654;28;20472;-69
2023/11/06 05:54:04;;;;;;;55.97;2.20;;;;;;;;;;5053997;28;20475;-72
2023/11/06 05:56:31;;;;;;;55.90;2.00;;;;;;;;;;5053805;28;20452;-70
2023/11/06 05:58:58;;;;;;;55.73;2.00;;;;;;;;;;5053688;28;20445;-70
2023/11/06 06:01:26;;;;;;;55.60;1.60;;;;;;;;;;5053171;28;20849;-70
2023/11/06 06:03:53;;;;;;;55.93;2.20;;;;;;;;;;5053211;28;20539;-71
2023/11/06 06:06:20;;;;;;;55.70;2.33;;;;;;;;;;5053437;28;20452;-72
2023/11/06 06:08:48;;;;;;;55.60;2.03;;;;;;;;;;5053234;28;20494;-71
2023/11/06 06:11:16;;;;;;;55.60;2.20;;;;;;;;;;5052943;28;21005;-71
2023/11/06 06:13:43;;;;;;;55.77;2.20;;;;;;;;;;5053235;28;20468;-71
2023/11/06 06:16:10;;;;;;;55.43;2.00;;;;;;;;;;5052743;28;20450;-72
2023/11/06 06:18:37;;;;;;;55.77;2.07;;;;;;;;;;5053119;28;20447;-71
2023/11/06 06:21:05;;;;;;;55.17;2.20;;;;;;;;;;5053031;28;20475;-73
2023/11/06 06:23:32;;;;;;;55.77;2.10;;;;;;;;;;5053040;28;20440;-71
2023/11/06 06:26:01;;;;;;;55.57;1.87;;;;;;;;;;5052805;28;20440;-71
2023/11/06 06:28:28;;;;;;;55.90;2.03;;;;;;;;;;5053014;28;20489;-71
2023/11/06 06:30:55;;;;;;;55.90;2.27;;;;;;;;;;5052332;28;20464;-71
2023/11/06 06:33:22;;;;;;;55.70;2.00;;;;;;;;;;5052593;28;20446;-71
2023/11/06 06:35:49;;;;;;;55.97;2.40;;;;;;;;;;5052963;28;20446;-72
2023/11/06 06:38:16;;;;;;;55.73;2.30;;;;;;;;;;5052872;28;20444;-71
2023/11/06 06:40:43;;;;;;;55.43;2.20;;;;;;;;;;5052731;28;20464;-71
2023/11/06 06:43:12;;;;;;;55.77;2.20;;;;;;;;;;5052397;28;20832;-71
2023/11/06 06:45:39;;;;;;;55.77;2.30;;;;;;;;;;5052344;28;20451;-71
2023/11/06 06:48:06;;;;;;;55.70;2.13;;;;;;;;;;5052558;28;20508;-71
2023/11/06 06:50:33;;;;;;;55.73;2.43;;;;;;;;;;5052643;28;20891;-72
2023/11/06 06:53:00;;;;;;;55.70;2.37;;;;;;;;;;5052395;28;20783;-71
2023/11/06 06:55:27;;;;;;;56.20;2.90;;;;;;;;;;5052241;28;20445;-72
2023/11/06 06:57:59;;;;;;;56.10;2.77;;;;;;;;;;5052549;28;20452;-71
2023/11/06 07:00:27;;;;;;;55.63;2.70;;;;;;;;;;5052233;28;20860;-71
2023/11/06 07:02:54;;;;;;;55.70;2.30;;;;;;;;;;5052305;28;20455;-71
2023/11/06 07:05:21;;;;;;;55.93;2.57;;;;;;;;;;5052364;28;20444;-71
2023/11/06 07:07:49;;;;;;;55.80;2.10;;;;;;;;;;5052260;28;20445;-71
2023/11/06 07:10:17;;;;;;;55.80;2.30;;;;;;;;;;5051931;28;20457;-71
2023/11/06 07:12:44;;;;;;;55.83;2.40;;;;;;;;;;5051774;28;20453;-72
2023/11/06 07:15:11;;;;;;;55.87;2.53;;;;;;;;;;5052035;28;20451;-71
2023/11/06 07:17:40;;;;;;;55.23;2.10;;;;;;;;;;5052085;28;20449;-71
2023/11/06 07:20:07;;;;;;;55.77;1.97;;;;;;;;;;5051684;28;20471;-70
2023/11/06 07:22:35;;;;;;;56.07;2.27;;;;;;;;;;5051835;28;20542;-71
2023/11/06 07:25:02;;;;;;;55.73;2.10;;;;;;;;;;5051599;28;20459;-72
2023/11/06 07:27:29;;;;;;;55.63;2.10;;;;;;;;;;5051409;28;20535;-70
2023/11/06 07:29:56;;;;;;;55.67;2.00;;;;;;;;;;5051853;28;20502;-72
2023/11/06 07:32:23;;;;;;;55.70;2.10;;;;;;;;;;5051892;28;20450;-70
2023/11/06 07:34:51;;;;;;;55.70;2.20;;;;;;;;;;5051669;28;20452;-71
2023/11/06 07:37:18;;;;;;;55.53;2.30;;;;;;;;;;5051321;28;20452;-71
2023/11/06 07:39:45;;;;;;;55.67;2.00;;;;;;;;;;5051351;28;20445;-72
2023/11/06 07:42:13;;;;;;;55.57;2.00;;;;;;;;;;5051156;28;20452;-71
2023/11/06 07:44:41;;;;;;;55.90;1.87;;;;;;;;;;5051620;28;20453;-73
2023/11/06 07:47:08;;;;;;;55.67;2.00;;;;;;;;;;5051353;28;20448;-70
2023/11/06 07:49:35;;;;;;;55.80;2.00;;;;;;;;;;5051325;28;20495;-70
2023/11/06 07:52:09;;;;;;;55.10;1.97;;;;;;;;;;5051130;28;20942;-72
2023/11/06 07:54:39;;;;;;;55.67;1.80;;;;;;;;;;5051174;28;20511;-73
2023/11/06 07:57:06;;;;;;;55.60;1.90;;;;;;;;;;5051317;28;20448;-71
2023/11/06 07:59:33;;;;;;;55.80;2.20;;;;;;;;;;5051168;28;20867;-71
2023/11/06 08:02:00;;;;;;;55.50;2.03;;;;;;;;;;5051048;28;20450;-71
2023/11/06 08:04:28;;;;;;;55.50;2.00;;;;;;;;;;5051219;28;20452;-72
2023/11/06 08:06:55;;;;;;;55.60;1.97;;;;;;;;;;5050723;28;20450;-71
2023/11/06 08:09:23;;;;;;;55.17;1.90;;;;;;;;;;5043117;28;20579;-70
2023/11/06 08:11:51;;;;;;;55.60;1.97;;;;;;;;;;5050819;28;20464;-73
2023/11/06 08:14:18;;;;;;;55.53;1.90;;;;;;;;;;5050994;28;20456;-70
2023/11/06 08:16:45;;;;;;;55.70;1.77;;;;;;;;;;5050922;28;20444;-71
2023/11/06 08:19:12;;;;;;;55.27;1.83;;;;;;;;;;5050795;28;20442;-70
2023/11/06 08:21:39;;;;;;;54.97;1.70;;;;;;;;;;5050570;28;20475;-71
2023/11/06 08:24:07;;;;;;;55.60;1.80;;;;;;;;;;5050900;28;20462;-72
2023/11/06 08:26:35;;;;;;;56.87;2.30;;;;;;;;;;5050980;28;20453;-71
2023/11/06 08:29:03;;;;;;;55.77;1.80;;;;;;;;;;5050513;28;21000;-71
2023/11/06 08:31:30;;;;;;;55.27;1.97;;;;;;;;;;5050639;28;20500;-71
2023/11/06 08:33:57;;;;;;;55.57;1.80;;;;;;;;;;5050628;28;20910;-71
2023/11/06 08:36:26;;;;;;;55.77;2.20;;;;;;;;;;5050878;28;20444;-70
2023/11/06 08:38:53;;;;;;;55.70;2.07;;;;;;;;;;5050664;28;20477;-70
2023/11/06 08:41:20;;;;;;;55.27;1.80;;;;;;;;;;5050569;28;20456;-71
2023/11/06 08:43:49;;;;;;;55.57;1.80;;;;;;;;;;5050520;28;20639;-69
2023/11/06 08:46:16;;;;;;;55.13;1.80;;;;;;;;;;5050416;28;20445;-68
2023/11/06 08:48:43;;;;;;;55.90;2.10;;;;;;;;;;5050749;28;20904;-68
2023/11/06 08:51:10;;;;;;;54.97;1.83;;;;;;;;;;5050608;28;20478;-68
2023/11/06 08:53:37;;;;;;;55.50;1.90;;;;;;;;;;5053093;28;20655;-68
2023/11/06 08:56:04;;;;;;;55.33;1.77;;;;;;;;;;5054430;28;20825;-68
2023/11/06 08:58:32;;;;;;;55.57;1.80;;;;;;;;;;5054644;28;20449;-68
2023/11/06 09:01:00;;;;;;;55.33;1.90;;;;;;;;;;5054407;28;20484;-69
2023/11/06 09:03:27;;;;;;;55.50;1.83;;;;;;;;;;5054490;28;20539;-70
2023/11/06 09:05:55;;;;;;;55.33;1.90;;;;;;;;;;5054401;28;20446;-69
2023/11/06 09:08:22;;;;;;;55.37;1.90;;;;;;;;;;5054352;28;20446;-71
2023/11/06 09:10:49;;;;;;;55.37;2.03;;;;;;;;;;5054189;28;20493;-69
2023/11/06 09:13:16;;;;;;;55.47;2.00;;;;;;;;;;5054240;28;20451;-70
2023/11/06 09:15:43;;;;;;;55.77;1.90;;;;;;;;;;5053868;28;20462;-68
2023/11/06 09:18:11;;;;;;;55.27;2.03;;;;;;;;;;5054278;28;20830;-69
2023/11/06 09:20:39;;;;;;;55.03;1.70;;;;;;;;;;5054326;28;20468;-69
2023/11/06 09:23:06;;;;;;;55.53;1.67;;;;;;;;;;5053959;28;20444;-68
2023/11/06 09:25:33;;;;;;;56.00;1.67;;;;;;;;;;5054068;28;20534;-68
2023/11/06 09:28:01;;;;;;;55.33;1.80;;;;;;;;;;5053853;28;20444;-75
2023/11/06 09:30:28;;;;;;;55.90;1.90;;;;;;;;;;5053778;28;20519;-71
2023/11/06 09:32:55;;;;;;;55.50;1.83;;;;;;;;;;5053732;28;20456;-71
2023/11/06 09:35:24;;;;;;;55.87;1.90;;;;;;;;;;5053748;28;20470;-69
2023/11/06 09:37:51;;;;;;;59.70;2.08;;;;;;;;;;5050565;28;20440;-70
2023/11/06 09:40:21;;;;;;;61.20;2.33;;;;;;;;;;5053030;28;20228;-69
2023/11/06 09:42:49;;;;;;;55.57;1.83;;;;;;;;;;5052910;28;20455;-68
2023/11/06 09:45:16;;;;;;;55.73;1.90;;;;;;;;;;5053351;28;20455;-69
2023/11/06 09:47:47;;;;;;;55.90;2.20;;;;;;;;;;5053317;28;20453;-69
2023/11/06 09:50:18;;;;;;;55.77;1.80;;;;;;;;;;5053185;28;20583;-69
2023/11/06 09:52:47;;;;;;;56.23;2.83;;;;;;;;;;5053575;28;20483;-70
2023/11/06 09:55:18;;;;;;;55.90;1.83;;;;;;;;;;5053245;28;20461;-69
2023/11/06 09:57:45;;;;;;;55.80;2.00;;;;;;;;;;5053452;28;20450;-69
2023/11/06 10:00:16;;;;;;;56.17;2.13;;;;;;;;;;5053155;28;20531;-69
2023/11/06 10:02:43;;;;;;;55.77;1.90;;;;;;;;;;5053328;28;20456;-69
2023/11/06 10:05:13;;;;;;;55.60;2.20;;;;;;;;;;5051691;28;20449;-68
2023/11/06 10:07:41;;;;;;;55.93;2.10;;;;;;;;;;5052314;28;20764;-69
2023/11/06 10:10:13;;;;;;;55.80;1.83;;;;;;;;;;5047562;28;20499;-68
2023/11/06 10:12:40;;;;;;;55.80;1.90;;;;;;;;;;5046921;28;20813;-68
2023/11/06 10:15:11;;;;;;;56.40;2.10;;;;;;;;;;5052902;28;20940;-70
2023/11/06 10:17:38;;;;;;;55.87;1.90;;;;;;;;;;5053006;28;20546;-70
2023/11/06 10:20:08;;;;;;;56.30;2.17;;;;;;;;;;5053175;28;20479;-70
2023/11/06 10:22:36;;;;;;;55.87;1.80;;;;;;;;;;5053174;28;20449;-69
2023/11/06 10:25:03;;;;;;;55.83;1.90;;;;;;;;;;5053005;28;20451;-73
2023/11/06 10:27:33;;;;;;;56.27;1.93;;;;;;;;;;5045015;28;20867;-69
2023/11/06 10:30:04;;;;;;;55.83;2.10;;;;;;;;;;5052791;28;20495;-69
2023/11/06 10:32:32;;;;;;;55.87;2.10;;;;;;;;;;5045128;28;20478;-69
2023/11/06 10:35:01;;;;;;;55.80;2.10;;;;;;;;;;5052651;28;20462;-69
2023/11/06 10:37:28;;;;;;;55.80;1.90;;;;;;;;;;5052571;28;20965;-69
2023/11/06 10:39:57;;;;;;;55.90;1.90;;;;;;;;;;5052780;28;20479;-69
2023/11/06 10:42:24;;;;;;;55.73;1.90;;;;;;;;;;5052657;28;20727;-69
2023/11/06 10:44:57;;;;;;;55.50;1.77;;;;;;;;;;5052528;28;20451;-69
2023/11/06 10:47:28;;;;;;;55.83;1.83;;;;;;;;;;5052369;28;20456;-70
2023/11/06 10:49:58;;;;;;;55.57;1.80;;;;;;;;;;5052394;28;20503;-70
2023/11/06 10:52:27;;;;;;;55.67;2.00;;;;;;;;;;5052304;28;20442;-69
2023/11/06 10:54:56;;;;;;;58.73;2.37;;;;;;;;;;5052476;28;20471;-70
2023/11/06 10:57:24;;;;;;;55.90;1.90;;;;;;;;;;5052195;28;20487;-69
2023/11/06 10:59:51;;;;;;;57.73;2.60;;;;;;;;;;5051948;28;20457;-69
2023/11/06 11:02:25;;;;;;;55.87;1.87;;;;;;;;;;5052081;28;20447;-70
2023/11/06 11:04:53;;;;;;;56.03;2.10;;;;;;;;;;5052463;28;20458;-69
2023/11/06 11:07:20;;;;;;;56.07;1.80;;;;;;;;;;5052030;28;20449;-68
2023/11/06 11:09:49;;;;;;;55.87;1.87;;;;;;;;;;5051981;28;20493;-69
2023/11/06 11:12:17;;;;;;;55.87;2.00;;;;;;;;;;5051710;28;20967;-72
2023/11/06 11:14:44;;;;;;;56.47;3.00;;;;;;;;;;5052351;28;20869;-69
2023/11/06 11:17:12;;;;;;;56.10;1.93;;;;;;;;;;5051420;28;20441;-71
2023/11/06 11:19:42;;;;;;;56.00;2.07;;;;;;;;;;5052053;28;20892;-70
2023/11/06 11:22:10;;;;;;;56.30;1.90;;;;;;;;;;5051804;28;20509;-70
2023/11/06 11:24:52;;;;;;;56.17;2.10;;;;;;;;;;5052042;28;20484;-74
2023/11/06 11:27:21;;;;;;;56.00;1.83;;;;;;;;;;5052117;28;20863;-71
2023/11/06 11:30:09;;;;;;;56.20;2.10;;;;;;;;;;5052034;28;20510;-70
2023/11/06 11:32:50;;;;;;;56.17;2.00;;;;;;;;;;5051729;28;20463;-71
2023/11/06 11:35:36;;;;;;;56.00;1.80;;;;;;;;;;5051527;28;20454;-70
2023/11/06 11:38:04;;;;;;;62.77;2.23;;;;;;;;;;5051821;28;20484;-71
2023/11/06 11:40:59;;;;;;;55.97;2.00;;;;;;;;;;5051730;28;20459;-70
2023/11/06 11:43:42;;;;;;;55.60;1.90;;;;;;;;;;5051290;28;20446;-72
2023/11/06 11:46:27;;;;;;;55.80;2.07;;;;;;;;;;5051569;28;20442;-71
2023/11/06 11:48:55;;;;;;;56.03;1.97;;;;;;;;;;5051406;28;20932;-71
2023/11/06 11:51:48;;;;;;;56.30;2.20;;;;;;;;;;5051205;28;20497;-71
2023/11/06 11:54:29;;;;;;;55.67;1.77;;;;;;;;;;5051254;28;20463;-73
2023/11/06 11:56:56;;;;;;;55.40;1.80;;;;;;;;;;5051293;28;20458;-71
2023/11/06 11:59:25;;;;;;;55.93;2.00;;;;;;;;;;5050995;28;20450;-73
2023/11/06 12:01:52;;;;;;;56.00;1.87;;;;;;;;;;5051028;28;20474;-71
2023/11/06 12:04:20;;;;;;;55.80;1.90;;;;;;;;;;5050919;28;20451;-69
2023/11/06 12:06:49;;;;;;;56.10;2.33;;;;;;;;;;5050886;28;20531;-70
2023/11/06 12:09:16;;;;;;;55.70;1.70;;;;;;;;;;5051052;28;20978;-70
2023/11/06 12:11:47;;;;;;;55.83;1.90;;;;;;;;;;5050917;28;20498;-70
2023/11/06 12:14:15;;;;;;;55.70;1.80;;;;;;;;;;5050980;28;20451;-70
2023/11/06 12:16:49;;;;;;;55.73;1.83;;;;;;;;;;5050924;28;20815;-70
2023/11/06 12:19:16;;;;;;;55.90;1.90;;;;;;;;;;5050967;28;20825;-72
2023/11/06 12:21:44;;;;;;;55.77;1.90;;;;;;;;;;5050754;28;20980;-69
2023/11/06 12:24:11;;;;;;;55.67;1.77;;;;;;;;;;5050692;28;20549;-71
2023/11/06 12:26:52;;;;;;;55.67;1.70;;;;;;;;;;5050466;28;20544;-69
2023/11/06 12:29:26;;;;;;;55.90;1.93;;;;;;;;;;5050357;28;20461;-70
2023/11/06 12:31:53;;;;;;;55.93;1.90;;;;;;;;;;5050605;28;20583;-70
2023/11/06 12:34:20;;;;;;;55.63;1.70;;;;;;;;;;5051088;28;20784;-70
2023/11/06 12:36:47;;;;;;;55.60;1.90;;;;;;;;;;5050673;28;20502;-70
2023/11/06 12:39:26;;;;;;;55.90;1.90;;;;;;;;;;5050630;28;20456;-72
2023/11/06 12:41:58;;;;;;;55.70;1.83;;;;;;;;;;5050498;28;20468;-70
2023/11/06 12:44:36;;;;;;;55.87;1.80;;;;;;;;;;5050653;28;20457;-72
2023/11/06 12:47:04;;;;;;;55.97;1.80;;;;;;;;;;5050512;28;20458;-70
2023/11/06 12:49:48;;;;;;;55.70;1.90;;;;;;;;;;5050504;28;20455;-72
2023/11/06 12:52:17;;;;;;;55.77;1.80;;;;;;;;;;5050326;28;20443;-71
2023/11/06 12:54:45;;;;;;;55.83;1.90;;;;;;;;;;5050412;28;20462;-70
2023/11/06 12:57:13;;;;;;;55.67;1.90;;;;;;;;;;5050355;28;20464;-71
2023/11/06 12:59:41;;;;;;;55.33;1.67;;;;;;;;;;5050403;28;20448;-70
2023/11/06 13:02:08;;;;;;;55.77;1.90;;;;;;;;;;5050385;28;20453;-70
2023/11/06 13:04:36;;;;;;;55.67;1.73;;;;;;;;;;5050358;28;20514;-70
2023/11/06 13:07:04;;;;;;;56.10;1.90;;;;;;;;;;5050065;28;20446;-71
2023/11/06 13:09:32;;;;;;;55.53;1.80;;;;;;;;;;5050593;28;20527;-71
2023/11/06 13:11:59;;;;;;;55.80;1.80;;;;;;;;;;5050243;28;20492;-72
2023/11/06 13:14:27;;;;;;;55.80;2.00;;;;;;;;;;5050296;28;20477;-70
2023/11/06 13:16:55;;;;;;;55.43;1.97;;;;;;;;;;5050154;28;20452;-70
2023/11/06 13:19:28;;;;;;;55.87;1.97;;;;;;;;;;5050083;28;20462;-70
2023/11/06 13:21:57;;;;;;;55.57;1.70;;;;;;;;;;5050287;28;20463;-72
2023/11/06 13:24:24;;;;;;;55.57;1.63;;;;;;;;;;5050366;28;20990;-70
2023/11/06 13:26:51;;;;;;;55.67;1.83;;;;;;;;;;5050074;28;20464;-70
2023/11/06 13:29:19;;;;;;;55.80;2.00;;;;;;;;;;5050280;28;20450;-70
2023/11/06 13:31:48;;;;;;;55.63;2.00;;;;;;;;;;5049843;28;20641;-70
2023/11/06 13:34:16;;;;;;;55.87;2.00;;;;;;;;;;5049990;28;20482;-71
2023/11/06 13:36:48;;;;;;;56.10;2.20;;;;;;;;;;5050031;28;20455;-70
2023/11/06 13:39:19;;;;;;;55.37;1.80;;;;;;;;;;5051695;28;20487;-70
2023/11/06 13:41:47;;;;;;;55.73;1.90;;;;;;;;;;5053390;28;20475;-70
2023/11/06 13:44:14;;;;;;;55.80;1.80;;;;;;;;;;5053667;28;20451;-70
2023/11/06 13:46:42;;;;;;;55.87;1.80;;;;;;;;;;5053220;28;20833;-72
2023/11/06 13:49:13;;;;;;;55.77;1.80;;;;;;;;;;5053811;28;20447;-68
2023/11/06 13:51:42;;;;;;;55.97;1.90;;;;;;;;;;5053293;28;20523;-69
2023/11/06 13:54:21;;;;;;;55.67;1.67;;;;;;;;;;5053590;28;20453;-70
2023/11/06 13:56:52;;;;;;;55.80;1.90;;;;;;;;;;5053259;28;20448;-71
2023/11/06 13:59:24;;;;;;;55.87;1.80;;;;;;;;;;5053257;28;20493;-69
2023/11/06 14:01:52;;;;;;;55.97;1.77;;;;;;;;;;5053115;28;20482;-68
2023/11/06 14:04:21;;;;;;;55.70;1.70;;;;;;;;;;5053103;28;20937;-69
2023/11/06 14:06:54;;;;;;;55.47;1.60;;;;;;;;;;5053108;28;20452;-70
2023/11/06 14:09:39;;;;;;;55.67;1.90;;;;;;;;;;5053041;28;20466;-70
2023/11/06 14:12:10;;;;;;;56.10;1.90;;;;;;;;;;5053158;28;20486;-70
2023/11/06 14:14:38;;;;;;;56.00;1.90;;;;;;;;;;5053029;28;20453;-69
2023/11/06 14:17:05;;;;;;;56.00;2.10;;;;;;;;;;5052993;28;20463;-69
2023/11/06 14:19:35;;;;;;;55.47;1.90;;;;;;;;;;5053059;28;20444;-69
2023/11/06 14:22:07;;;;;;;55.90;2.00;;;;;;;;;;5052926;28;20539;-69
2023/11/06 14:24:35;;;;;;;55.20;1.80;;;;;;;;;;5053036;28;20862;-69
2023/11/06 14:27:04;;;;;;;56.00;2.00;;;;;;;;;;5053061;28;20448;-69
2023/11/06 14:29:32;;;;;;;55.57;2.00;;;;;;;;;;5052842;28;20493;-69
2023/11/06 14:31:59;;;;;;;55.87;1.77;;;;;;;;;;5052620;28;20901;-69
2023/11/06 14:34:27;;;;;;;56.10;1.93;;;;;;;;;;5052525;28;20793;-69
2023/11/06 14:36:55;;;;;;;55.67;1.90;;;;;;;;;;5052785;28;20541;-70
2023/11/06 14:39:22;;;;;;;55.77;1.90;;;;;;;;;;5052781;28;20440;-69